createdAt,value
2023-01-12T00:01:30.285Z,15.98
2023-01-12T00:03:57.001Z,13.73
2023-01-12T00:06:24.191Z,11.98
2023-01-12T00:08:51.726Z,12.98
2023-01-12T00:11:18.970Z,13.40
2023-01-12T00:13:45.588Z,11.00
2023-01-12T00:16:35.508Z,12.77
2023-01-12T00:19:03.514Z,16.02
2023-01-12T00:21:35.745Z,11.98
2023-01-12T00:24:02.404Z,11.35
2023-01-12T00:26:29.421Z,12.43
2023-01-12T00:28:56.109Z,9.15
2023-01-12T00:31:23.071Z,11.38
2023-01-12T00:33:49.734Z,10.73
2023-01-12T00:36:16.646Z,11.27
2023-01-12T00:38:43.410Z,11.98
2023-01-12T00:41:32.543Z,16.33
2023-01-12T00:44:17.725Z,11.07
2023-01-12T00:46:44.610Z,10.80
2023-01-12T00:49:11.281Z,15.35
2023-01-12T00:51:38.234Z,11.80
2023-01-12T00:54:07.520Z,11.82
2023-01-12T00:56:35.454Z,10.55
2023-01-12T00:59:02.117Z,11.25
2023-01-12T01:01:29.211Z,10.13
2023-01-12T01:03:55.881Z,9.93
2023-01-12T01:06:22.952Z,8.35
2023-01-12T01:08:49.657Z,9.32
2023-01-12T01:11:16.582Z,8.57
2023-01-12T01:13:46.376Z,12.15
2023-01-12T01:16:14.408Z,9.32
2023-01-12T01:18:41.289Z,8.65
2023-01-12T01:21:09.181Z,9.40
2023-01-12T01:23:36.357Z,10.85
2023-01-12T01:26:04.318Z,8.85
2023-01-12T01:28:32.768Z,8.38
2023-01-12T01:31:07.865Z,7.90
2023-01-12T01:33:34.636Z,7.53
2023-01-12T01:36:01.626Z,10.40
2023-01-12T01:38:28.291Z,10.15
2023-01-12T01:40:55.376Z,8.10
2023-01-12T01:43:23.110Z,9.55
2023-01-12T01:46:00.066Z,7.05
2023-01-12T01:48:27.297Z,7.95
2023-01-12T01:50:57.633Z,8.98
2023-01-12T01:53:25.615Z,7.97
2023-01-12T01:56:23.150Z,9.27
2023-01-12T01:58:58.575Z,7.65
2023-01-12T02:01:25.733Z,9.15
2023-01-12T02:03:52.514Z,7.20
2023-01-12T02:06:19.499Z,7.78
2023-01-12T02:09:00.549Z,7.18
2023-01-12T02:11:46.107Z,6.57
2023-01-12T02:14:31.499Z,7.00
2023-01-12T02:17:04.374Z,8.70
2023-01-12T02:19:58.574Z,5.78
2023-01-12T02:22:48.968Z,5.47
2023-01-12T02:25:36.796Z,6.03
2023-01-12T02:28:19.563Z,8.43
2023-01-12T02:31:01.632Z,7.70
2023-01-12T02:33:43.712Z,6.00
2023-01-12T02:36:23.942Z,5.57
2023-01-12T02:38:57.970Z,7.47
2023-01-12T02:41:56.451Z,7.07
2023-01-12T02:44:30.297Z,5.60
2023-01-12T02:46:57.257Z,8.60
2023-01-12T02:49:24.217Z,5.15
2023-01-12T02:51:58.869Z,5.57
2023-01-12T02:54:25.816Z,5.68
2023-01-12T02:56:54.345Z,6.95
2023-01-12T02:59:42.461Z,7.82
2023-01-12T03:02:18.147Z,7.88
2023-01-12T03:04:45.100Z,8.48
2023-01-12T03:07:14.955Z,8.88
2023-01-12T03:09:47.632Z,8.32
2023-01-12T03:12:18.049Z,5.53
2023-01-12T03:14:46.729Z,6.90
2023-01-12T03:17:24.096Z,7.72
2023-01-12T03:19:51.073Z,7.80
2023-01-12T03:22:17.713Z,6.57
2023-01-12T03:24:48.260Z,9.70
2023-01-12T03:27:20.647Z,8.50
2023-01-12T03:29:50.344Z,9.45
2023-01-12T03:32:18.141Z,8.40
2023-01-12T03:34:45.411Z,6.47
2023-01-12T03:37:37.762Z,8.38
2023-01-12T03:40:23.680Z,8.48
2023-01-12T03:42:51.538Z,10.50
2023-01-12T03:45:37.026Z,8.10
2023-01-12T03:48:10.833Z,8.07
2023-01-12T03:50:56.333Z,8.40
2023-01-12T03:53:23.089Z,11.27
2023-01-12T03:55:52.037Z,11.27
2023-01-12T03:58:20.791Z,8.98
2023-01-12T04:00:47.730Z,7.38
2023-01-12T04:03:15.231Z,9.93
2023-01-12T04:05:42.784Z,8.75
2023-01-12T04:08:10.747Z,9.55
2023-01-12T04:10:37.662Z,10.30
2023-01-12T04:13:04.277Z,9.52
2023-01-12T04:15:31.349Z,9.95
2023-01-12T04:17:58.024Z,11.30
2023-01-12T04:20:24.992Z,10.82
2023-01-12T04:22:51.636Z,8.40
2023-01-12T04:25:20.765Z,10.50
2023-01-12T04:27:48.906Z,9.95
2023-01-12T04:30:17.067Z,10.10
2023-01-12T04:32:44.133Z,11.50
2023-01-12T04:35:14.524Z,12.15
2023-01-12T04:37:41.193Z,10.25
2023-01-12T04:40:10.368Z,15.98
2023-01-12T04:42:55.813Z,13.43
2023-01-12T04:47:49.450Z,10.50
2023-01-12T04:50:18.516Z,11.43
2023-01-12T04:52:45.332Z,9.10
2023-01-12T04:55:12.827Z,12.65
2023-01-12T04:57:39.523Z,10.57
2023-01-12T05:00:07.244Z,10.38
2023-01-12T05:02:33.912Z,10.73
2023-01-12T05:05:00.979Z,10.63
2023-01-12T05:07:27.776Z,9.95
2023-01-12T05:10:22.164Z,10.35
2023-01-12T05:12:48.839Z,9.68
2023-01-12T05:15:15.899Z,11.85
2023-01-12T05:17:42.534Z,10.30
2023-01-12T05:20:10.165Z,9.43
2023-01-12T05:22:36.838Z,9.98
2023-01-12T05:25:03.951Z,10.77
2023-01-12T05:27:30.631Z,10.50
2023-01-12T05:29:59.636Z,10.02
2023-01-12T05:32:26.841Z,10.40
2023-01-12T05:34:53.788Z,12.45
2023-01-12T05:37:20.536Z,10.27
2023-01-12T05:39:47.527Z,11.02
2023-01-12T05:42:32.993Z,11.77
2023-01-12T05:47:26.490Z,11.10
2023-01-12T05:49:53.401Z,14.63
2023-01-12T05:52:20.092Z,14.15
2023-01-12T05:54:53.987Z,15.30
2023-01-12T05:57:20.656Z,13.07
2023-01-12T05:59:47.585Z,12.02
2023-01-12T06:02:17.507Z,12.05
2023-01-12T06:04:44.727Z,14.05
2023-01-12T06:07:13.122Z,13.55
2023-01-12T06:09:40.476Z,12.43
2023-01-12T06:12:25.594Z,14.52
2023-01-12T06:14:52.657Z,17.58
2023-01-12T06:17:19.706Z,15.65
2023-01-12T06:19:46.713Z,14.60
2023-01-12T06:22:13.399Z,17.98
2023-01-12T06:24:40.432Z,19.35
2023-01-12T06:27:07.299Z,18.92
2023-01-12T06:29:34.233Z,19.42
2023-01-12T06:32:00.966Z,16.52
2023-01-12T06:34:27.917Z,19.27
2023-01-12T06:36:54.612Z,20.88
2023-01-12T06:39:21.625Z,18.30
2023-01-12T06:42:06.777Z,18.95
2023-01-12T06:44:33.751Z,20.52
2023-01-12T06:47:02.405Z,17.38
2023-01-12T06:49:29.300Z,19.42
2023-01-12T06:52:01.013Z,17.40
2023-01-12T06:54:43.453Z,18.50
2023-01-12T06:57:10.344Z,17.67
2023-01-12T06:59:38.975Z,18.42
2023-01-12T07:02:15.826Z,16.70
2023-01-12T07:04:43.035Z,18.15
2023-01-12T07:07:10.173Z,17.75
2023-01-12T07:09:37.124Z,18.15
2023-01-12T07:12:04.118Z,16.33
2023-01-12T07:14:31.066Z,17.10
2023-01-12T07:16:57.730Z,16.50
2023-01-12T07:19:25.216Z,20.73
2023-01-12T07:21:51.918Z,19.00
2023-01-12T07:24:18.858Z,17.42
2023-01-12T07:26:48.029Z,19.40
2023-01-12T07:29:14.950Z,18.30
2023-01-12T07:31:41.639Z,16.55
2023-01-12T07:34:09.955Z,18.70
2023-01-12T07:36:36.563Z,18.77
2023-01-12T07:39:03.557Z,20.13
2023-01-12T07:41:48.899Z,18.80
2023-01-12T07:44:15.890Z,21.25
2023-01-12T07:46:42.752Z,18.42
2023-01-12T07:49:09.728Z,18.10
2023-01-12T07:51:36.367Z,23.67
2023-01-12T07:54:03.335Z,21.13
2023-01-12T07:56:30.137Z,16.95
2023-01-12T07:58:57.597Z,17.48
2023-01-12T08:01:24.466Z,18.40
2023-01-12T08:03:51.528Z,16.92
2023-01-12T08:06:18.488Z,19.40
2023-01-12T08:08:45.501Z,18.40
2023-01-12T08:11:12.184Z,17.38
2023-01-12T08:13:40.805Z,19.58
2023-01-12T08:16:17.069Z,17.30
2023-01-12T08:19:08.046Z,22.02
2023-01-12T08:21:41.851Z,16.92
2023-01-12T08:24:09.506Z,19.17
2023-01-12T08:26:38.580Z,15.52
2023-01-12T08:29:16.996Z,16.70
2023-01-12T08:31:43.662Z,15.73
2023-01-12T08:34:11.769Z,15.27
2023-01-12T08:36:38.471Z,15.68
2023-01-12T08:39:05.450Z,15.40
2023-01-12T08:41:37.680Z,13.93
2023-01-12T08:44:10.794Z,18.48
2023-01-12T08:46:53.584Z,18.60
2023-01-12T08:49:24.336Z,17.63
2023-01-12T08:51:51.340Z,17.63
2023-01-12T08:54:18.867Z,17.00
2023-01-12T08:56:45.761Z,19.10
2023-01-12T08:59:13.011Z,15.82
2023-01-12T09:01:39.908Z,16.17
2023-01-12T09:04:07.120Z,18.08
2023-01-12T09:06:44.090Z,20.45
2023-01-12T09:09:15.664Z,21.33
2023-01-12T09:11:43.044Z,18.33
2023-01-12T09:14:10.716Z,19.00
2023-01-12T09:16:37.373Z,18.98
2023-01-12T09:19:04.447Z,18.25
2023-01-12T09:21:31.254Z,17.00
2023-01-12T09:23:58.373Z,15.95
2023-01-12T09:26:31.961Z,18.40
2023-01-12T09:28:59.690Z,16.63
2023-01-12T09:31:27.314Z,17.70
2023-01-12T09:33:54.662Z,17.67
2023-01-12T09:36:26.543Z,18.40
2023-01-12T09:38:53.583Z,14.93
2023-01-12T09:41:41.089Z,15.82
2023-01-12T09:44:40.509Z,15.73
2023-01-12T09:47:34.765Z,17.15
2023-01-12T09:50:13.232Z,15.77
2023-01-12T09:53:28.315Z,14.45
2023-01-12T09:55:55.278Z,13.73
2023-01-12T09:58:43.578Z,15.60
2023-01-12T10:01:24.073Z,13.23
2023-01-12T10:03:55.342Z,15.98
2023-01-12T10:06:31.565Z,13.48
2023-01-12T10:09:05.517Z,13.20
2023-01-12T10:12:17.603Z,13.75
2023-01-12T10:15:13.410Z,17.10
2023-01-12T10:20:40.387Z,12.18
2023-01-12T10:23:07.378Z,16.13
2023-01-12T10:25:35.450Z,13.25
2023-01-12T10:28:33.369Z,15.57
2023-01-12T10:31:00.535Z,12.63
2023-01-12T10:33:29.483Z,13.70
2023-01-12T10:36:17.221Z,14.43
2023-01-12T10:38:56.862Z,26.15
2023-01-12T10:41:24.372Z,12.65
2023-01-12T10:44:15.317Z,12.20
2023-01-12T10:46:42.156Z,11.15
2023-01-12T10:49:18.619Z,10.57
2023-01-12T10:51:58.093Z,13.32
2023-01-12T10:54:25.622Z,9.80
2023-01-12T10:57:00.101Z,8.82
2023-01-12T10:59:29.494Z,12.07
2023-01-12T11:02:16.704Z,12.40
2023-01-12T11:04:48.914Z,11.50
2023-01-12T11:07:22.785Z,9.57
2023-01-12T11:09:49.829Z,10.70
2023-01-12T11:12:29.998Z,13.70
2023-01-12T11:15:18.258Z,11.40
2023-01-12T11:18:07.715Z,10.75
2023-01-12T11:20:40.936Z,14.23
2023-01-12T11:23:14.904Z,9.75
2023-01-12T11:25:43.812Z,11.55
2023-01-12T11:28:29.155Z,11.02
2023-01-12T11:31:06.208Z,9.23
2023-01-12T11:33:38.354Z,10.95
2023-01-12T11:36:06.623Z,9.50
2023-01-12T11:38:54.676Z,9.35
2023-01-12T11:41:23.674Z,10.05
2023-01-12T11:44:02.382Z,9.43
2023-01-12T11:46:48.635Z,11.07
2023-01-12T11:49:29.583Z,11.63
2023-01-12T11:51:58.565Z,11.70
2023-01-12T11:54:27.078Z,8.63
2023-01-12T11:57:26.497Z,9.82
2023-01-12T12:00:16.614Z,7.57
2023-01-12T12:03:07.336Z,10.45
2023-01-12T12:06:00.213Z,11.80
2023-01-12T12:08:38.788Z,11.50
2023-01-12T12:11:12.610Z,9.45
2023-01-12T12:13:57.620Z,8.45
2023-01-12T12:16:39.094Z,8.90
2023-01-12T12:19:15.395Z,8.82
2023-01-12T12:21:50.540Z,10.43
2023-01-12T12:24:39.319Z,10.48
2023-01-12T12:27:28.864Z,11.82
2023-01-12T12:30:11.247Z,11.77
2023-01-12T12:33:17.271Z,10.05
2023-01-12T12:38:35.528Z,6.82
2023-01-12T12:41:30.056Z,8.13
2023-01-12T12:44:33.423Z,12.68
2023-01-12T12:47:37.440Z,8.02
2023-01-12T12:50:04.254Z,7.97
2023-01-12T12:52:34.950Z,10.15
2023-01-12T12:55:01.677Z,8.48
2023-01-12T12:57:29.233Z,8.70
2023-01-12T12:59:57.772Z,9.20
2023-01-12T13:02:55.109Z,10.95
2023-01-12T13:05:43.279Z,8.23
2023-01-12T13:08:36.682Z,8.30
2023-01-12T13:11:03.387Z,11.25
2023-01-12T13:13:31.738Z,10.60
2023-01-12T13:16:20.269Z,12.00
2023-01-12T13:18:50.371Z,9.63
2023-01-12T13:21:43.424Z,10.77
2023-01-12T13:24:10.383Z,13.25
2023-01-12T13:26:39.302Z,11.70
2023-01-12T13:29:24.839Z,10.90
2023-01-12T13:31:52.723Z,12.85
2023-01-12T13:34:32.060Z,11.48
2023-01-12T13:37:20.171Z,10.68
2023-01-12T13:40:18.981Z,11.88
2023-01-12T13:43:04.397Z,9.23
2023-01-12T13:47:58.189Z,11.38
2023-01-12T13:50:26.521Z,12.27
2023-01-12T13:53:00.714Z,14.40
2023-01-12T13:55:29.726Z,11.32
2023-01-12T13:57:57.929Z,9.23
2023-01-12T14:00:25.269Z,12.32
2023-01-12T14:02:52.271Z,11.32
2023-01-12T14:05:22.455Z,9.77
2023-01-12T14:08:01.712Z,12.02
2023-01-12T14:10:36.749Z,11.60
2023-01-12T14:13:25.999Z,12.10
2023-01-12T14:16:19.286Z,12.52
2023-01-12T14:18:48.614Z,17.35
2023-01-12T14:21:26.859Z,14.68
2023-01-12T14:23:53.873Z,10.65
2023-01-12T14:26:24.196Z,12.30
2023-01-12T14:28:51.744Z,11.00
2023-01-12T14:31:35.430Z,13.70
2023-01-12T14:34:03.616Z,13.52
2023-01-12T14:36:42.097Z,13.05
2023-01-12T14:39:10.776Z,10.98
2023-01-12T14:41:56.476Z,14.73
2023-01-12T14:44:42.929Z,15.05
2023-01-12T14:47:10.446Z,17.67
2023-01-12T14:49:37.771Z,14.75
2023-01-12T14:52:16.726Z,16.10
2023-01-12T14:54:43.538Z,12.90
2023-01-12T14:57:21.367Z,13.05
2023-01-12T14:59:48.342Z,13.60
2023-01-12T15:02:15.395Z,14.23
2023-01-12T15:05:06.291Z,10.75
2023-01-12T15:07:38.119Z,10.20
2023-01-12T15:10:25.319Z,10.18
2023-01-12T15:12:54.308Z,9.82
2023-01-12T15:15:49.461Z,9.93
2023-01-12T15:18:34.798Z,14.07
2023-01-12T15:21:20.213Z,14.73
2023-01-12T15:24:05.916Z,11.13
2023-01-12T15:26:32.618Z,11.02
2023-01-12T15:28:59.569Z,9.52
2023-01-12T15:31:27.968Z,13.48
2023-01-12T15:33:55.233Z,13.73
2023-01-12T15:36:21.978Z,12.52
2023-01-12T15:38:49.036Z,11.73
2023-01-12T15:41:17.734Z,15.65
2023-01-12T15:43:51.082Z,13.13
2023-01-12T15:46:24.800Z,15.20
2023-01-12T15:49:00.212Z,14.18
2023-01-12T15:51:30.547Z,15.25
2023-01-12T15:54:00.069Z,19.45
2023-01-12T15:56:28.997Z,16.90
2023-01-12T15:58:57.772Z,17.52
2023-01-12T16:01:25.907Z,18.73
2023-01-12T16:04:25.035Z,18.35
2023-01-12T16:06:39.670Z,19.35
2023-01-12T16:09:06.735Z,18.02
2023-01-12T16:11:33.464Z,16.50
2023-01-12T16:14:00.481Z,15.52
2023-01-12T16:16:28.556Z,17.65
2023-01-12T16:18:59.970Z,16.83
2023-01-12T16:21:29.706Z,15.77
2023-01-12T16:23:57.968Z,14.55
2023-01-12T16:26:28.432Z,17.17
2023-01-12T16:28:57.559Z,14.63
2023-01-12T16:31:25.085Z,13.98
2023-01-12T16:33:52.163Z,12.70
2023-01-12T16:36:18.889Z,16.05
2023-01-12T16:38:45.859Z,13.15
2023-01-12T16:41:18.980Z,13.90
2023-01-12T16:43:46.471Z,14.25
2023-01-12T16:46:13.272Z,19.00
2023-01-12T16:48:42.048Z,15.77
2023-01-12T16:51:14.229Z,16.48
2023-01-12T16:53:42.190Z,16.48
2023-01-12T16:56:14.398Z,15.93
2023-01-12T16:58:47.585Z,17.27
2023-01-12T17:01:21.045Z,16.95
2023-01-12T17:03:48.616Z,16.58
2023-01-12T17:06:17.919Z,15.88
2023-01-12T17:08:45.471Z,16.58
2023-01-12T17:11:14.535Z,15.13
2023-01-12T17:13:41.975Z,16.50
2023-01-12T17:16:09.720Z,14.95
2023-01-12T17:18:37.729Z,20.13
2023-01-12T17:21:06.924Z,18.13
2023-01-12T17:23:33.991Z,14.82
2023-01-12T17:26:04.746Z,14.70
2023-01-12T17:28:34.660Z,14.65
2023-01-12T17:31:12.610Z,14.32
2023-01-12T17:33:39.772Z,15.70
2023-01-12T17:36:07.941Z,15.38
2023-01-12T17:38:35.633Z,13.70
2023-01-12T17:41:33.356Z,17.13
2023-01-12T17:44:01.712Z,13.35
2023-01-12T17:46:28.652Z,15.32
2023-01-12T17:48:58.670Z,14.07
2023-01-12T17:51:25.654Z,11.10
2023-01-12T17:53:56.460Z,12.48
2023-01-12T17:56:23.841Z,14.55
2023-01-12T17:58:54.278Z,14.30
2023-01-12T18:01:21.822Z,12.43
2023-01-12T18:03:48.861Z,13.07
2023-01-12T18:06:25.770Z,10.70
2023-01-12T18:08:53.532Z,11.68
2023-01-12T18:11:20.244Z,14.75
2023-01-12T18:13:47.176Z,11.15
2023-01-12T18:16:14.687Z,10.85
2023-01-12T18:18:44.952Z,12.75
2023-01-12T18:21:16.572Z,9.63
2023-01-12T18:23:43.687Z,10.73
2023-01-12T18:26:13.547Z,11.85
2023-01-12T18:28:40.772Z,12.13
2023-01-12T18:31:11.844Z,13.27
2023-01-12T18:33:38.960Z,12.82
2023-01-12T18:36:13.183Z,13.80
2023-01-12T18:38:41.442Z,7.30
2023-01-12T18:41:27.347Z,11.27
2023-01-12T18:43:54.455Z,10.02
2023-01-12T18:46:21.211Z,11.07
2023-01-12T18:48:48.210Z,8.82
2023-01-12T18:51:33.593Z,10.25
2023-01-12T18:56:27.197Z,10.50
2023-01-12T18:58:54.248Z,9.90
2023-01-12T19:01:24.304Z,8.68
2023-01-12T19:03:51.816Z,9.45
2023-01-12T19:06:24.067Z,10.35
2023-01-12T19:09:10.095Z,12.25
2023-01-12T19:14:22.704Z,12.50
2023-01-12T19:17:07.915Z,9.32
2023-01-12T19:19:35.160Z,8.82
2023-01-12T19:22:21.032Z,11.18
2023-01-12T19:25:06.701Z,9.00
2023-01-12T19:27:52.040Z,11.20
2023-01-12T19:30:19.208Z,11.50
2023-01-12T19:32:45.924Z,10.50
2023-01-12T19:35:13.008Z,10.88
2023-01-12T19:37:41.431Z,10.32
2023-01-12T19:40:25.784Z,10.35
2023-01-12T19:43:12.688Z,11.75
2023-01-12T19:45:41.574Z,12.32
2023-01-12T19:48:08.607Z,10.98
2023-01-12T19:50:36.087Z,11.02
2023-01-12T19:53:03.544Z,8.68
2023-01-12T19:55:31.334Z,9.23
2023-01-12T19:57:58.503Z,9.95
2023-01-12T20:00:25.926Z,8.63
2023-01-12T20:02:52.916Z,8.95
2023-01-12T20:05:22.923Z,7.82
2023-01-12T20:07:51.039Z,8.93
2023-01-12T20:10:18.960Z,7.45
2023-01-12T20:12:45.696Z,11.02
2023-01-12T20:15:13.440Z,6.10
2023-01-12T20:17:40.151Z,8.40
2023-01-12T20:20:10.468Z,7.28
2023-01-12T20:22:37.275Z,9.13
2023-01-12T20:25:05.300Z,10.48
2023-01-12T20:27:32.937Z,9.65
2023-01-12T20:30:00.413Z,11.80
2023-01-12T20:32:31.491Z,8.25
2023-01-12T20:34:59.443Z,7.45
2023-01-12T20:37:26.646Z,8.85
2023-01-12T20:39:56.012Z,9.23
2023-01-12T20:42:22.782Z,6.53
2023-01-12T20:44:50.002Z,7.72
2023-01-12T20:47:19.080Z,8.80
2023-01-12T20:49:46.654Z,8.57
2023-01-12T20:52:13.510Z,11.45
2023-01-12T20:54:40.569Z,7.10
2023-01-12T20:57:17.018Z,6.47
2023-01-12T20:59:44.328Z,5.72
2023-01-12T21:02:21.662Z,6.80
2023-01-12T21:04:48.832Z,5.40
2023-01-12T21:07:15.525Z,4.78
2023-01-12T21:09:42.546Z,6.65
2023-01-12T21:12:09.429Z,5.65
2023-01-12T21:14:36.691Z,7.10
2023-01-12T21:17:03.710Z,5.35
2023-01-12T21:19:30.849Z,5.97
2023-01-12T21:21:57.655Z,6.88
2023-01-12T21:24:25.156Z,3.60
2023-01-12T21:26:51.808Z,8.00
2023-01-12T21:29:18.780Z,6.05
2023-01-12T21:31:45.501Z,6.32
2023-01-12T21:34:12.555Z,4.90
2023-01-12T21:36:41.393Z,6.25
2023-01-12T21:39:08.457Z,5.28
2023-01-12T21:41:55.571Z,7.82
2023-01-12T21:44:22.797Z,8.32
2023-01-12T21:46:49.460Z,8.60
2023-01-12T21:49:16.628Z,5.55
2023-01-12T21:51:43.327Z,7.07
2023-01-12T21:54:10.721Z,5.43
2023-01-12T21:56:37.543Z,5.00
2023-01-12T21:59:04.531Z,5.07
2023-01-12T22:01:31.401Z,4.95
2023-01-12T22:03:58.453Z,7.55
2023-01-12T22:06:25.141Z,12.25
2023-01-12T22:08:52.149Z,6.25
2023-01-12T22:11:18.868Z,6.13
2023-01-12T22:13:45.826Z,7.13
2023-01-12T22:16:13.874Z,8.00
2023-01-12T22:18:43.993Z,5.00
2023-01-12T22:21:11.060Z,5.57
2023-01-12T22:23:38.278Z,4.70
2023-01-12T22:26:06.646Z,4.13
2023-01-12T22:28:33.912Z,6.57
2023-01-12T22:31:14.824Z,3.92
2023-01-12T22:33:54.032Z,7.60
2023-01-12T22:36:21.802Z,4.35
2023-01-12T22:38:48.805Z,5.90
2023-01-12T22:41:16.587Z,4.47
2023-01-12T22:43:44.716Z,4.95
2023-01-12T22:46:25.023Z,8.55
2023-01-12T22:48:53.797Z,4.07
2023-01-12T22:51:21.215Z,4.05
2023-01-12T22:53:48.519Z,4.85
2023-01-12T22:56:15.204Z,4.47
2023-01-12T22:58:49.113Z,5.13
2023-01-12T23:01:16.143Z,5.03
2023-01-12T23:03:43.227Z,5.55
2023-01-12T23:06:14.138Z,4.25
2023-01-12T23:08:42.163Z,7.18
2023-01-12T23:11:17.090Z,4.60
2023-01-12T23:13:44.213Z,6.30
2023-01-12T23:16:11.668Z,5.70
2023-01-12T23:18:39.923Z,8.10
2023-01-12T23:21:16.542Z,5.03
2023-01-12T23:23:48.121Z,5.80
2023-01-12T23:26:19.951Z,5.32
2023-01-12T23:28:48.408Z,5.47
2023-01-12T23:31:17.444Z,5.10
2023-01-12T23:33:44.531Z,5.32
2023-01-12T23:36:18.895Z,3.63
2023-01-12T23:38:46.067Z,4.63
2023-01-12T23:41:14.074Z,6.53
2023-01-12T23:43:41.414Z,4.93
2023-01-12T23:46:08.301Z,4.90
2023-01-12T23:48:35.348Z,6.65
2023-01-12T23:51:02.013Z,4.25
2023-01-12T23:53:29.144Z,3.10
2023-01-12T23:55:56.533Z,6.03
2023-01-12T23:58:24.109Z,4.85
